Gran Canaria - Aeropuerto en Canarias

latitud = 27° 55' 4''N | longitud = 015° 23' 43''W
32 metros sobre el nivel del mar |

Fecha, hora, temperatura, viento dirección y velocidad, humedad y presión.

  • 24-09-2017 23:00:00 | 22.80°C | Norte |22.00 km/h | 87.00% | 1012.30 hPa
  • 24-09-2017 22:00:00 | 22.80°C | Norte |24.00 km/h | 89.00% | 1012.00 hPa
  • 24-09-2017 21:00:00 | 24.00°C | Norte |13.00 km/h | 80.00% | 1011.50 hPa
  • 24-09-2017 20:00:00 | 23.70°C | Norte |10.00 km/h | 82.00% | 1012.30 hPa
  • 24-09-2017 19:00:00 | 23.70°C | Norte |13.00 km/h | 82.00% | 1013.00 hPa
  • 24-09-2017 18:00:00 | 24.60°C | Nordeste |15.00 km/h | 78.00% | 1012.40 hPa
  • 24-09-2017 17:00:00 | 24.70°C | Nordeste |13.00 km/h | 79.00% | 1012.20 hPa
  • 24-09-2017 16:00:00 | 25.30°C | Nordeste |24.00 km/h | 75.00% | 1012.40 hPa
  • 24-09-2017 15:00:00 | 25.70°C | Norte |25.00 km/h | 72.00% | 1012.30 hPa
  • 24-09-2017 14:00:00 | 26.40°C | Norte |23.00 km/h | 68.00% | 1012.40 hPa
  • 24-09-2017 13:00:00 | 25.60°C | Nordeste |22.00 km/h | 70.00% | 1013.30 hPa
  • 24-09-2017 12:00:00 | 25.30°C | Norte |19.00 km/h | 71.00% | 1013.60 hPa
  • 24-09-2017 11:00:00 | 25.10°C | Norte |22.00 km/h | 70.00% | 1013.00 hPa
  • 24-09-2017 10:00:00 | 23.40°C | Norte |18.00 km/h | 77.00% | 1013.10 hPa
  • 24-09-2017 09:00:00 | 21.80°C | Norte |16.00 km/h | 81.00% | 1011.60 hPa
  • 24-09-2017 08:00:00 | 20.60°C | Norte |17.00 km/h | 86.00% | 1011.60 hPa
  • 24-09-2017 07:00:00 | 21.00°C | Norte |15.00 km/h | 85.00% | 1010.90 hPa
  • 24-09-2017 06:00:00 | 20.90°C | Norte |16.00 km/h | 84.00% | 1010.30 hPa
  • 24-09-2017 05:00:00 | 21.00°C | Norte |14.00 km/h | 85.00% | 1010.20 hPa
  • 24-09-2017 04:00:00 | 21.40°C | Norte |17.00 km/h | 88.00% | 1010.30 hPa
  • 24-09-2017 03:00:00 | 21.60°C | Norte |18.00 km/h | 88.00% | 1010.70 hPa
  • 24-09-2017 02:00:00 | 21.80°C | Norte |19.00 km/h | 86.00% | 1011.20 hPa
  • 24-09-2017 01:00:00 | 22.00°C | Norte |16.00 km/h | 84.00% | 1011.70 hPa
  • 24-09-2017 00:00:00 | 22.20°C | Norte |19.00 km/h | 84.00% | 1011.80 hPa